sensor_id;sensor_type;location;lat;lon;timestamp;temperature;humidity
66343;DHT22;53144;51.524;5.080;2023-08-12T00:01:48;20.18;97.29
66343;DHT22;53144;51.524;5.080;2023-08-12T00:04:14;20.19;97.39
66343;DHT22;53144;51.524;5.080;2023-08-12T00:06:41;20.25;97.18
66343;DHT22;53144;51.524;5.080;2023-08-12T00:09:07;20.24;97.30
66343;DHT22;53144;51.524;5.080;2023-08-12T00:11:34;20.19;97.11
66343;DHT22;53144;51.524;5.080;2023-08-12T00:13:59;20.18;97.16
66343;DHT22;53144;51.524;5.080;2023-08-12T00:16:24;20.18;97.20
66343;DHT22;53144;51.524;5.080;2023-08-12T00:18:50;20.19;97.14
66343;DHT22;53144;51.524;5.080;2023-08-12T00:21:15;20.25;97.20
66343;DHT22;53144;51.524;5.080;2023-08-12T00:23:41;20.30;96.76
66343;DHT22;53144;51.524;5.080;2023-08-12T00:26:07;20.29;96.56
66343;DHT22;53144;51.524;5.080;2023-08-12T00:28:33;20.22;96.93
66343;DHT22;53144;51.524;5.080;2023-08-12T00:30:59;20.28;96.62
66343;DHT22;53144;51.524;5.080;2023-08-12T00:33:24;20.22;96.62
66343;DHT22;53144;51.524;5.080;2023-08-12T00:35:50;20.21;96.67
66343;DHT22;53144;51.524;5.080;2023-08-12T00:38:15;20.14;97.05
66343;DHT22;53144;51.524;5.080;2023-08-12T00:40:41;20.16;96.75
66343;DHT22;53144;51.524;5.080;2023-08-12T00:43:06;20.16;96.64
66343;DHT22;53144;51.524;5.080;2023-08-12T00:45:33;20.15;96.72
66343;DHT22;53144;51.524;5.080;2023-08-12T00:47:58;20.15;96.63
66343;DHT22;53144;51.524;5.080;2023-08-12T00:50:25;20.11;96.58
66343;DHT22;53144;51.524;5.080;2023-08-12T00:52:51;20.09;96.73
66343;DHT22;53144;51.524;5.080;2023-08-12T00:55:17;20.08;96.87
66343;DHT22;53144;51.524;5.080;2023-08-12T00:57:43;20.05;96.82
66343;DHT22;53144;51.524;5.080;2023-08-12T01:00:08;20.07;96.78
66343;DHT22;53144;51.524;5.080;2023-08-12T01:02:34;20.07;96.67
66343;DHT22;53144;51.524;5.080;2023-08-12T01:04:59;20.08;96.61
66343;DHT22;53144;51.524;5.080;2023-08-12T01:07:25;20.05;96.67
66343;DHT22;53144;51.524;5.080;2023-08-12T01:09:50;20.04;96.69
66343;DHT22;53144;51.524;5.080;2023-08-12T01:12:18;20.01;96.71
66343;DHT22;53144;51.524;5.080;2023-08-12T01:17:22;20.02;96.92
66343;DHT22;53144;51.524;5.080;2023-08-12T01:19:49;20.05;96.82
66343;DHT22;53144;51.524;5.080;2023-08-12T01:22:16;20.04;96.82
66343;DHT22;53144;51.524;5.080;2023-08-12T01:24:43;20.04;96.76
66343;DHT22;53144;51.524;5.080;2023-08-12T01:27:10;20.08;96.66
66343;DHT22;53144;51.524;5.080;2023-08-12T01:29:44;20.07;96.93
66343;DHT22;53144;51.524;5.080;2023-08-12T01:32:36;20.04;97.15
66343;DHT22;53144;51.524;5.080;2023-08-12T01:37:35;19.94;97.69
66343;DHT22;53144;51.524;5.080;2023-08-12T01:40:02;19.91;98.00
66343;DHT22;53144;51.524;5.080;2023-08-12T01:42:32;19.85;98.13
66343;DHT22;53144;51.524;5.080;2023-08-12T01:44:58;19.84;98.16
66343;DHT22;53144;51.524;5.080;2023-08-12T01:47:24;19.87;98.11
66343;DHT22;53144;51.524;5.080;2023-08-12T01:49:50;19.82;98.39
66343;DHT22;53144;51.524;5.080;2023-08-12T01:52:15;19.85;98.17
66343;DHT22;53144;51.524;5.080;2023-08-12T01:54:41;19.88;98.02
66343;DHT22;53144;51.524;5.080;2023-08-12T01:57:06;19.91;97.88
66343;DHT22;53144;51.524;5.080;2023-08-12T01:59:33;19.92;97.80
66343;DHT22;53144;51.524;5.080;2023-08-12T02:01:59;19.98;97.59
66343;DHT22;53144;51.524;5.080;2023-08-12T02:04:29;19.99;97.39
66343;DHT22;53144;51.524;5.080;2023-08-12T02:06:55;19.98;97.27
66343;DHT22;53144;51.524;5.080;2023-08-12T02:09:21;19.98;97.22
66343;DHT22;53144;51.524;5.080;2023-08-12T02:11:48;19.95;97.19
66343;DHT22;53144;51.524;5.080;2023-08-12T02:14:13;19.91;97.28
66343;DHT22;53144;51.524;5.080;2023-08-12T02:16:39;19.91;97.23
66343;DHT22;53144;51.524;5.080;2023-08-12T02:19:04;19.95;97.31
66343;DHT22;53144;51.524;5.080;2023-08-12T02:21:30;19.99;97.14
66343;DHT22;53144;51.524;5.080;2023-08-12T02:23:55;20.01;97.01
66343;DHT22;53144;51.524;5.080;2023-08-12T02:26:21;20.04;96.83
66343;DHT22;53144;51.524;5.080;2023-08-12T02:28:46;20.05;96.81
66343;DHT22;53144;51.524;5.080;2023-08-12T02:31:12;20.04;96.82
66343;DHT22;53144;51.524;5.080;2023-08-12T02:33:37;20.04;96.84
66343;DHT22;53144;51.524;5.080;2023-08-12T02:36:03;20.05;96.80
66343;DHT22;53144;51.524;5.080;2023-08-12T02:38:28;20.04;96.86
66343;DHT22;53144;51.524;5.080;2023-08-12T02:40:54;20.01;96.68
66343;DHT22;53144;51.524;5.080;2023-08-12T02:43:20;19.99;96.79
66343;DHT22;53144;51.524;5.080;2023-08-12T02:45:46;20.04;96.84
66343;DHT22;53144;51.524;5.080;2023-08-12T02:48:11;19.99;96.65
66343;DHT22;53144;51.524;5.080;2023-08-12T02:50:37;20.04;96.25
66343;DHT22;53144;51.524;5.080;2023-08-12T02:53:03;20.04;96.10
66343;DHT22;53144;51.524;5.080;2023-08-12T02:55:28;19.99;96.27
66343;DHT22;53144;51.524;5.080;2023-08-12T02:57:54;19.99;95.95
66343;DHT22;53144;51.524;5.080;2023-08-12T03:00:20;19.99;95.84
66343;DHT22;53144;51.524;5.080;2023-08-12T03:02:47;19.98;95.79
66343;DHT22;53144;51.524;5.080;2023-08-12T03:05:12;19.97;95.85
66343;DHT22;53144;51.524;5.080;2023-08-12T03:07:37;19.88;95.95
66343;DHT22;53144;51.524;5.080;2023-08-12T03:10:04;19.91;95.91
66343;DHT22;53144;51.524;5.080;2023-08-12T03:12:29;19.87;96.07
66343;DHT22;53144;51.524;5.080;2023-08-12T03:14:55;19.89;96.00
66343;DHT22;53144;51.524;5.080;2023-08-12T03:17:20;19.87;96.05
66343;DHT22;53144;51.524;5.080;2023-08-12T03:19:46;19.88;95.95
66343;DHT22;53144;51.524;5.080;2023-08-12T03:22:11;19.84;96.06
66343;DHT22;53144;51.524;5.080;2023-08-12T03:24:37;19.85;96.04
66343;DHT22;53144;51.524;5.080;2023-08-12T03:27:02;19.92;95.88
66343;DHT22;53144;51.524;5.080;2023-08-12T03:29:28;19.87;95.88
66343;DHT22;53144;51.524;5.080;2023-08-12T03:31:53;19.94;95.64
66343;DHT22;53144;51.524;5.080;2023-08-12T03:34:18;19.88;95.80
66343;DHT22;53144;51.524;5.080;2023-08-12T03:36:44;19.91;95.96
66343;DHT22;53144;51.524;5.080;2023-08-12T03:39:11;19.94;95.60
66343;DHT22;53144;51.524;5.080;2023-08-12T03:41:36;19.87;95.73
66343;DHT22;53144;51.524;5.080;2023-08-12T03:44:02;19.89;95.62
66343;DHT22;53144;51.524;5.080;2023-08-12T03:46:27;19.84;95.79
66343;DHT22;53144;51.524;5.080;2023-08-12T03:48:52;19.85;95.82
66343;DHT22;53144;51.524;5.080;2023-08-12T03:51:18;19.81;95.91
66343;DHT22;53144;51.524;5.080;2023-08-12T03:53:43;19.78;95.95
66343;DHT22;53144;51.524;5.080;2023-08-12T03:56:09;19.78;96.07
66343;DHT22;53144;51.524;5.080;2023-08-12T03:58:34;19.78;96.11
66343;DHT22;53144;51.524;5.080;2023-08-12T04:01:00;19.85;96.08
66343;DHT22;53144;51.524;5.080;2023-08-12T04:03:25;19.79;96.41
66343;DHT22;53144;51.524;5.080;2023-08-12T04:05:51;19.74;96.82
66343;DHT22;53144;51.524;5.080;2023-08-12T04:08:22;19.73;96.91
66343;DHT22;53144;51.524;5.080;2023-08-12T04:10:48;19.70;97.16
66343;DHT22;53144;51.524;5.080;2023-08-12T04:13:14;19.66;97.63
66343;DHT22;53144;51.524;5.080;2023-08-12T04:15:40;19.64;97.77
66343;DHT22;53144;51.524;5.080;2023-08-12T04:18:06;19.60;97.87
66343;DHT22;53144;51.524;5.080;2023-08-12T04:20:32;19.64;97.86
66343;DHT22;53144;51.524;5.080;2023-08-12T04:22:57;19.58;98.09
66343;DHT22;53144;51.524;5.080;2023-08-12T04:25:24;19.46;98.78
66343;DHT22;53144;51.524;5.080;2023-08-12T04:27:49;19.45;98.70
66343;DHT22;53144;51.524;5.080;2023-08-12T04:30:18;19.37;99.06
66343;DHT22;53144;51.524;5.080;2023-08-12T04:32:44;19.31;99.03
66343;DHT22;53144;51.524;5.080;2023-08-12T04:35:09;19.29;99.06
66343;DHT22;53144;51.524;5.080;2023-08-12T04:37:36;19.30;99.06
66343;DHT22;53144;51.524;5.080;2023-08-12T04:40:01;19.31;99.29
66343;DHT22;53144;51.524;5.080;2023-08-12T04:42:29;19.30;99.33
66343;DHT22;53144;51.524;5.080;2023-08-12T04:44:54;19.30;99.46
66343;DHT22;53144;51.524;5.080;2023-08-12T04:47:20;19.23;99.53
66343;DHT22;53144;51.524;5.080;2023-08-12T04:49:45;19.20;99.65
66343;DHT22;53144;51.524;5.080;2023-08-12T04:52:10;19.20;99.82
66343;DHT22;53144;51.524;5.080;2023-08-12T04:54:36;19.19;99.86
66343;DHT22;53144;51.524;5.080;2023-08-12T04:57:01;19.20;99.77
66343;DHT22;53144;51.524;5.080;2023-08-12T04:59:27;19.15;99.95
66343;DHT22;53144;51.524;5.080;2023-08-12T05:01:52;19.15;99.99
66343;DHT22;53144;51.524;5.080;2023-08-12T05:04:17;19.12;99.99
66343;DHT22;53144;51.524;5.080;2023-08-12T05:06:43;19.06;99.99
66343;DHT22;53144;51.524;5.080;2023-08-12T05:09:08;19.09;99.99
66343;DHT22;53144;51.524;5.080;2023-08-12T05:11:34;19.10;99.99
66343;DHT22;53144;51.524;5.080;2023-08-12T05:13:59;19.06;99.99
66343;DHT22;53144;51.524;5.080;2023-08-12T05:16:25;19.10;99.99
66343;DHT22;53144;51.524;5.080;2023-08-12T05:18:51;19.03;99.99
66343;DHT22;53144;51.524;5.080;2023-08-12T05:21:16;19.02;99.99
66343;DHT22;53144;51.524;5.080;2023-08-12T05:23:41;18.99;99.99
66343;DHT22;53144;51.524;5.080;2023-08-12T05:26:07;19.03;99.99
66343;DHT22;53144;51.524;5.080;2023-08-12T05:28:32;18.99;99.99
66343;DHT22;53144;51.524;5.080;2023-08-12T05:30:58;19.03;99.99
66343;DHT22;53144;51.524;5.080;2023-08-12T05:33:23;19.00;99.99
66343;DHT22;53144;51.524;5.080;2023-08-12T05:35:49;18.98;99.99
66343;DHT22;53144;51.524;5.080;2023-08-12T05:38:15;19.00;99.99
66343;DHT22;53144;51.524;5.080;2023-08-12T05:40:41;18.99;99.99
66343;DHT22;53144;51.524;5.080;2023-08-12T05:43:06;18.96;99.99
66343;DHT22;53144;51.524;5.080;2023-08-12T05:45:31;18.95;99.99
66343;DHT22;53144;51.524;5.080;2023-08-12T05:47:57;18.98;99.99
66343;DHT22;53144;51.524;5.080;2023-08-12T05:50:22;18.99;99.99
66343;DHT22;53144;51.524;5.080;2023-08-12T05:52:48;18.96;99.99
66343;DHT22;53144;51.524;5.080;2023-08-12T05:55:13;19.00;99.99
66343;DHT22;53144;51.524;5.080;2023-08-12T05:57:39;18.98;99.99
66343;DHT22;53144;51.524;5.080;2023-08-12T06:00:05;19.02;99.99
66343;DHT22;53144;51.524;5.080;2023-08-12T06:02:31;18.99;99.99
66343;DHT22;53144;51.524;5.080;2023-08-12T06:04:56;18.99;99.99
66343;DHT22;53144;51.524;5.080;2023-08-12T06:07:22;18.98;99.99
66343;DHT22;53144;51.524;5.080;2023-08-12T06:09:49;18.99;99.99
66343;DHT22;53144;51.524;5.080;2023-08-12T06:12:14;18.98;99.99
66343;DHT22;53144;51.524;5.080;2023-08-12T06:14:40;18.92;99.99
66343;DHT22;53144;51.524;5.080;2023-08-12T06:17:06;18.94;99.99
66343;DHT22;53144;51.524;5.080;2023-08-12T06:19:31;18.91;99.99
66343;DHT22;53144;51.524;5.080;2023-08-12T06:21:57;18.95;99.99
66343;DHT22;53144;51.524;5.080;2023-08-12T06:24:22;18.92;99.99
66343;DHT22;53144;51.524;5.080;2023-08-12T06:26:47;18.92;99.99
66343;DHT22;53144;51.524;5.080;2023-08-12T06:29:13;18.94;99.99
66343;DHT22;53144;51.524;5.080;2023-08-12T06:31:39;18.92;99.99
66343;DHT22;53144;51.524;5.080;2023-08-12T06:34:04;18.99;99.99
66343;DHT22;53144;51.524;5.080;2023-08-12T06:36:30;19.02;99.99
66343;DHT22;53144;51.524;5.080;2023-08-12T06:38:55;19.00;99.99
66343;DHT22;53144;51.524;5.080;2023-08-12T06:41:20;19.03;99.99
66343;DHT22;53144;51.524;5.080;2023-08-12T06:43:46;19.03;99.99
66343;DHT22;53144;51.524;5.080;2023-08-12T06:46:11;19.08;99.99
66343;DHT22;53144;51.524;5.080;2023-08-12T06:48:37;19.12;99.99
66343;DHT22;53144;51.524;5.080;2023-08-12T06:51:02;19.13;99.99
66343;DHT22;53144;51.524;5.080;2023-08-12T06:53:35;19.15;99.99
66343;DHT22;53144;51.524;5.080;2023-08-12T06:56:00;19.19;99.99
66343;DHT22;53144;51.524;5.080;2023-08-12T06:58:26;19.22;99.99
66343;DHT22;53144;51.524;5.080;2023-08-12T07:00:51;19.20;99.99
66343;DHT22;53144;51.524;5.080;2023-08-12T07:03:18;19.26;99.99
66343;DHT22;53144;51.524;5.080;2023-08-12T07:05:44;19.29;99.99
66343;DHT22;53144;51.524;5.080;2023-08-12T07:08:10;19.30;99.99
66343;DHT22;53144;51.524;5.080;2023-08-12T07:10:40;19.30;99.99
66343;DHT22;53144;51.524;5.080;2023-08-12T07:13:05;19.37;99.99
66343;DHT22;53144;51.524;5.080;2023-08-12T07:15:31;19.39;99.99
66343;DHT22;53144;51.524;5.080;2023-08-12T07:17:56;19.43;99.99
66343;DHT22;53144;51.524;5.080;2023-08-12T07:20:24;19.40;99.99
66343;DHT22;53144;51.524;5.080;2023-08-12T07:22:49;19.43;99.99
66343;DHT22;53144;51.524;5.080;2023-08-12T07:25:15;19.49;99.99
66343;DHT22;53144;51.524;5.080;2023-08-12T07:27:40;19.51;99.99
66343;DHT22;53144;51.524;5.080;2023-08-12T07:30:07;19.57;99.99
66343;DHT22;53144;51.524;5.080;2023-08-12T07:32:33;19.63;99.99
66343;DHT22;53144;51.524;5.080;2023-08-12T07:34:59;19.67;99.99
66343;DHT22;53144;51.524;5.080;2023-08-12T07:37:25;19.70;99.99
66343;DHT22;53144;51.524;5.080;2023-08-12T07:39:50;19.77;99.99
66343;DHT22;53144;51.524;5.080;2023-08-12T07:42:16;19.78;99.99
66343;DHT22;53144;51.524;5.080;2023-08-12T07:44:41;19.81;99.99
66343;DHT22;53144;51.524;5.080;2023-08-12T07:47:07;19.89;99.99
66343;DHT22;53144;51.524;5.080;2023-08-12T07:49:32;19.91;99.99
66343;DHT22;53144;51.524;5.080;2023-08-12T07:51:57;19.89;99.99
66343;DHT22;53144;51.524;5.080;2023-08-12T07:54:23;19.84;99.99
66343;DHT22;53144;51.524;5.080;2023-08-12T07:56:48;19.92;99.99
66343;DHT22;53144;51.524;5.080;2023-08-12T07:59:14;19.89;99.99
66343;DHT22;53144;51.524;5.080;2023-08-12T08:01:39;19.87;99.99
66343;DHT22;53144;51.524;5.080;2023-08-12T08:04:05;19.85;99.99
66343;DHT22;53144;51.524;5.080;2023-08-12T08:06:31;19.92;99.99
66343;DHT22;53144;51.524;5.080;2023-08-12T08:08:56;19.94;99.99
66343;DHT22;53144;51.524;5.080;2023-08-12T08:11:24;19.97;99.99
66343;DHT22;53144;51.524;5.080;2023-08-12T08:13:49;19.95;99.99
66343;DHT22;53144;51.524;5.080;2023-08-12T08:16:15;19.94;99.99
66343;DHT22;53144;51.524;5.080;2023-08-12T08:18:40;20.02;99.99
66343;DHT22;53144;51.524;5.080;2023-08-12T08:21:06;20.01;99.99
66343;DHT22;53144;51.524;5.080;2023-08-12T08:23:31;20.07;99.99
66343;DHT22;53144;51.524;5.080;2023-08-12T08:25:57;19.91;99.99
66343;DHT22;53144;51.524;5.080;2023-08-12T08:28:22;19.77;99.99
66343;DHT22;53144;51.524;5.080;2023-08-12T08:30:48;19.51;99.99
66343;DHT22;53144;51.524;5.080;2023-08-12T08:33:13;19.50;99.99
66343;DHT22;53144;51.524;5.080;2023-08-12T08:35:39;19.47;99.99
66343;DHT22;53144;51.524;5.080;2023-08-12T08:38:04;19.57;99.89
66343;DHT22;53144;51.524;5.080;2023-08-12T08:40:30;19.60;99.45
66343;DHT22;53144;51.524;5.080;2023-08-12T08:42:58;19.47;99.22
66343;DHT22;53144;51.524;5.080;2023-08-12T08:45:25;19.73;99.38
66343;DHT22;53144;51.524;5.080;2023-08-12T08:47:51;19.73;97.97
66343;DHT22;53144;51.524;5.080;2023-08-12T08:50:17;19.57;98.41
66343;DHT22;53144;51.524;5.080;2023-08-12T08:52:43;19.47;98.51
66343;DHT22;53144;51.524;5.080;2023-08-12T08:55:09;19.24;97.79
66343;DHT22;53144;51.524;5.080;2023-08-12T08:57:35;19.05;97.74
66343;DHT22;53144;51.524;5.080;2023-08-12T09:00:03;19.29;97.95
66343;DHT22;53144;51.524;5.080;2023-08-12T09:02:29;19.50;96.82
66343;DHT22;53144;51.524;5.080;2023-08-12T09:04:54;19.27;95.46
66343;DHT22;53144;51.524;5.080;2023-08-12T09:07:21;19.24;95.85
66343;DHT22;53144;51.524;5.080;2023-08-12T09:09:48;19.08;94.37
66343;DHT22;53144;51.524;5.080;2023-08-12T09:12:15;19.20;95.66
66343;DHT22;53144;51.524;5.080;2023-08-12T09:14:42;19.16;94.92
66343;DHT22;53144;51.524;5.080;2023-08-12T09:17:08;19.03;93.47
66343;DHT22;53144;51.524;5.080;2023-08-12T09:19:33;19.20;94.37
66343;DHT22;53144;51.524;5.080;2023-08-12T09:21:58;19.33;93.60
66343;DHT22;53144;51.524;5.080;2023-08-12T09:24:25;19.51;92.59
66343;DHT22;53144;51.524;5.080;2023-08-12T09:26:54;19.40;91.47
66343;DHT22;53144;51.524;5.080;2023-08-12T09:29:32;19.66;90.32
66343;DHT22;53144;51.524;5.080;2023-08-12T09:32:18;19.81;90.02
66343;DHT22;53144;51.524;5.080;2023-08-12T09:34:50;19.53;89.47
66343;DHT22;53144;51.524;5.080;2023-08-12T09:37:17;19.79;92.04
66343;DHT22;53144;51.524;5.080;2023-08-12T09:39:43;19.77;89.14
66343;DHT22;53144;51.524;5.080;2023-08-12T09:42:11;19.97;90.96
66343;DHT22;53144;51.524;5.080;2023-08-12T09:44:37;20.32;92.70
66343;DHT22;53144;51.524;5.080;2023-08-12T09:47:03;20.19;91.57
66343;DHT22;53144;51.524;5.080;2023-08-12T09:49:28;19.92;91.61
66343;DHT22;53144;51.524;5.080;2023-08-12T09:51:55;19.92;91.90
66343;DHT22;53144;51.524;5.080;2023-08-12T09:54:21;19.99;93.13
66343;DHT22;53144;51.524;5.080;2023-08-12T09:56:48;19.77;91.65
66343;DHT22;53144;51.524;5.080;2023-08-12T09:59:18;20.02;92.86
66343;DHT22;53144;51.524;5.080;2023-08-12T10:01:45;19.70;87.45
66343;DHT22;53144;51.524;5.080;2023-08-12T10:04:11;19.95;88.28
66343;DHT22;53144;51.524;5.080;2023-08-12T10:06:40;20.08;85.79
66343;DHT22;53144;51.524;5.080;2023-08-12T10:09:06;20.33;87.54
66343;DHT22;53144;51.524;5.080;2023-08-12T10:11:34;20.14;83.89
66343;DHT22;53144;51.524;5.080;2023-08-12T10:14:00;20.91;85.89
66343;DHT22;53144;51.524;5.080;2023-08-12T10:16:29;21.01;83.07
66343;DHT22;53144;51.524;5.080;2023-08-12T10:18:56;21.10;86.47
66343;DHT22;53144;51.524;5.080;2023-08-12T10:21:22;20.67;84.39
66343;DHT22;53144;51.524;5.080;2023-08-12T10:23:50;20.59;86.54
66343;DHT22;53144;51.524;5.080;2023-08-12T10:26:17;20.87;84.94
66343;DHT22;53144;51.524;5.080;2023-08-12T10:28:43;20.50;82.90
66343;DHT22;53144;51.524;5.080;2023-08-12T10:31:10;21.37;83.56
66343;DHT22;53144;51.524;5.080;2023-08-12T10:33:37;21.45;81.00
66343;DHT22;53144;51.524;5.080;2023-08-12T10:36:03;22.31;80.47
66343;DHT22;53144;51.524;5.080;2023-08-12T10:38:28;22.27;78.05
66343;DHT22;53144;51.524;5.080;2023-08-12T10:41:23;22.18;79.16
66343;DHT22;53144;51.524;5.080;2023-08-12T10:44:01;21.99;79.05
66343;DHT22;53144;51.524;5.080;2023-08-12T10:46:33;21.59;79.18
66343;DHT22;53144;51.524;5.080;2023-08-12T10:49:06;21.28;81.94
66343;DHT22;53144;51.524;5.080;2023-08-12T10:51:49;20.86;82.25
66343;DHT22;53144;51.524;5.080;2023-08-12T10:54:19;21.05;83.47
66343;DHT22;53144;51.524;5.080;2023-08-12T10:57:04;21.23;82.36
66343;DHT22;53144;51.524;5.080;2023-08-12T11:02:27;21.58;82.25
66343;DHT22;53144;51.524;5.080;2023-08-12T11:04:55;21.63;82.58
66343;DHT22;53144;51.524;5.080;2023-08-12T11:07:33;21.41;81.15
66343;DHT22;53144;51.524;5.080;2023-08-12T11:10:05;22.09;82.25
66343;DHT22;53144;51.524;5.080;2023-08-12T11:12:33;22.41;79.07
66343;DHT22;53144;51.524;5.080;2023-08-12T11:15:00;23.79;76.42
66343;DHT22;53144;51.524;5.080;2023-08-12T11:17:33;23.53;76.77
66343;DHT22;53144;51.524;5.080;2023-08-12T11:20:00;23.87;77.61
66343;DHT22;53144;51.524;5.080;2023-08-12T11:22:26;23.43;75.45
66343;DHT22;53144;51.524;5.080;2023-08-12T11:24:53;23.64;78.19
66343;DHT22;53144;51.524;5.080;2023-08-12T11:27:18;24.08;75.94
66343;DHT22;53144;51.524;5.080;2023-08-12T11:29:43;23.85;74.82
66343;DHT22;53144;51.524;5.080;2023-08-12T11:32:09;23.15;76.58
66343;DHT22;53144;51.524;5.080;2023-08-12T11:34:35;22.84;75.11
66343;DHT22;53144;51.524;5.080;2023-08-12T11:37:03;23.19;74.76
66343;DHT22;53144;51.524;5.080;2023-08-12T11:39:29;23.05;75.67
66343;DHT22;53144;51.524;5.080;2023-08-12T11:41:55;22.69;75.09
66343;DHT22;53144;51.524;5.080;2023-08-12T11:44:22;22.94;76.84
66343;DHT22;53144;51.524;5.080;2023-08-12T11:46:47;23.40;72.92
66343;DHT22;53144;51.524;5.080;2023-08-12T11:49:13;22.95;74.95
66343;DHT22;53144;51.524;5.080;2023-08-12T11:51:38;23.67;72.83
66343;DHT22;53144;51.524;5.080;2023-08-12T11:54:04;23.85;73.61
66343;DHT22;53144;51.524;5.080;2023-08-12T11:56:30;23.06;72.35
66343;DHT22;53144;51.524;5.080;2023-08-12T11:58:55;23.64;74.63
66343;DHT22;53144;51.524;5.080;2023-08-12T12:01:21;23.22;74.38
66343;DHT22;53144;51.524;5.080;2023-08-12T12:03:52;23.27;74.92
66343;DHT22;53144;51.524;5.080;2023-08-12T12:06:17;23.93;71.73
66343;DHT22;53144;51.524;5.080;2023-08-12T12:08:45;23.58;70.12
66343;DHT22;53144;51.524;5.080;2023-08-12T12:11:11;23.61;71.54
66343;DHT22;53144;51.524;5.080;2023-08-12T12:13:36;23.74;73.64
66343;DHT22;53144;51.524;5.080;2023-08-12T12:16:02;23.51;71.62
66343;DHT22;53144;51.524;5.080;2023-08-12T12:18:28;23.68;68.88
66343;DHT22;53144;51.524;5.080;2023-08-12T12:20:57;25.02;67.76
66343;DHT22;53144;51.524;5.080;2023-08-12T12:23:27;25.58;65.93
66343;DHT22;53144;51.524;5.080;2023-08-12T12:25:58;25.21;64.35
66343;DHT22;53144;51.524;5.080;2023-08-12T12:28:24;25.69;65.28
66343;DHT22;53144;51.524;5.080;2023-08-12T12:30:49;26.09;62.42
66343;DHT22;53144;51.524;5.080;2023-08-12T12:33:15;27.08;59.56
66343;DHT22;53144;51.524;5.080;2023-08-12T12:35:40;26.23;61.71
66343;DHT22;53144;51.524;5.080;2023-08-12T12:38:05;25.85;61.00
66343;DHT22;53144;51.524;5.080;2023-08-12T12:40:31;26.17;63.10
66343;DHT22;53144;51.524;5.080;2023-08-12T12:42:57;26.48;61.58
66343;DHT22;53144;51.524;5.080;2023-08-12T12:45:24;26.84;61.57
66343;DHT22;53144;51.524;5.080;2023-08-12T12:47:50;26.17;61.80
66343;DHT22;53144;51.524;5.080;2023-08-12T12:50:15;27.15;62.17
66343;DHT22;53144;51.524;5.080;2023-08-12T12:52:42;26.02;60.93
66343;DHT22;53144;51.524;5.080;2023-08-12T12:55:08;26.24;61.57
66343;DHT22;53144;51.524;5.080;2023-08-12T12:57:33;25.04;62.72
66343;DHT22;53144;51.524;5.080;2023-08-12T12:59:59;24.12;64.98
66343;DHT22;53144;51.524;5.080;2023-08-12T13:02:26;25.24;63.13
66343;DHT22;53144;51.524;5.080;2023-08-12T13:04:52;25.21;65.39
66343;DHT22;53144;51.524;5.080;2023-08-12T13:07:18;26.64;61.31
66343;DHT22;53144;51.524;5.080;2023-08-12T13:09:43;25.89;60.74
66343;DHT22;53144;51.524;5.080;2023-08-12T13:12:09;24.53;62.15
66343;DHT22;53144;51.524;5.080;2023-08-12T13:14:34;24.80;62.27
66343;DHT22;53144;51.524;5.080;2023-08-12T13:17:00;24.49;63.52
66343;DHT22;53144;51.524;5.080;2023-08-12T13:19:26;25.63;63.02
66343;DHT22;53144;51.524;5.080;2023-08-12T13:21:51;26.71;59.95
66343;DHT22;53144;51.524;5.080;2023-08-12T13:24:16;27.23;57.23
66343;DHT22;53144;51.524;5.080;2023-08-12T13:26:42;26.26;59.90
66343;DHT22;53144;51.524;5.080;2023-08-12T13:29:07;25.42;58.98
66343;DHT22;53144;51.524;5.080;2023-08-12T13:31:33;25.31;61.73
66343;DHT22;53144;51.524;5.080;2023-08-12T13:33:58;25.18;61.94
66343;DHT22;53144;51.524;5.080;2023-08-12T13:36:23;26.52;59.25
66343;DHT22;53144;51.524;5.080;2023-08-12T13:38:49;27.09;57.44
66343;DHT22;53144;51.524;5.080;2023-08-12T13:41:14;25.07;60.93
66343;DHT22;53144;51.524;5.080;2023-08-12T13:43:41;24.14;60.85
66343;DHT22;53144;51.524;5.080;2023-08-12T13:46:06;25.31;60.82
66343;DHT22;53144;51.524;5.080;2023-08-12T13:48:31;25.62;63.27
66343;DHT22;53144;51.524;5.080;2023-08-12T13:50:57;24.88;63.36
66343;DHT22;53144;51.524;5.080;2023-08-12T13:53:22;24.53;60.51
66343;DHT22;53144;51.524;5.080;2023-08-12T13:55:49;25.68;61.47
66343;DHT22;53144;51.524;5.080;2023-08-12T13:58:15;24.98;60.83
66343;DHT22;53144;51.524;5.080;2023-08-12T14:00:40;24.76;63.44
66343;DHT22;53144;51.524;5.080;2023-08-12T14:03:05;24.82;65.85
66343;DHT22;53144;51.524;5.080;2023-08-12T14:05:31;24.72;63.23
66343;DHT22;53144;51.524;5.080;2023-08-12T14:07:56;24.11;65.01
66343;DHT22;53144;51.524;5.080;2023-08-12T14:10:22;23.93;66.68
66343;DHT22;53144;51.524;5.080;2023-08-12T14:12:47;23.89;65.28
66343;DHT22;53144;51.524;5.080;2023-08-12T14:15:14;24.08;64.61
66343;DHT22;53144;51.524;5.080;2023-08-12T14:17:40;23.73;68.17
66343;DHT22;53144;51.524;5.080;2023-08-12T14:20:06;24.09;66.15
66343;DHT22;53144;51.524;5.080;2023-08-12T14:22:34;23.81;66.60
66343;DHT22;53144;51.524;5.080;2023-08-12T14:25:01;24.18;67.26
66343;DHT22;53144;51.524;5.080;2023-08-12T14:27:27;24.15;67.51
66343;DHT22;53144;51.524;5.080;2023-08-12T14:29:53;23.61;66.23
66343;DHT22;53144;51.524;5.080;2023-08-12T14:32:18;23.70;66.74
66343;DHT22;53144;51.524;5.080;2023-08-12T14:34:44;23.94;68.51
66343;DHT22;53144;51.524;5.080;2023-08-12T14:37:11;24.15;66.33
66343;DHT22;53144;51.524;5.080;2023-08-12T14:39:37;24.21;65.87
66343;DHT22;53144;51.524;5.080;2023-08-12T14:42:03;24.00;69.24
66343;DHT22;53144;51.524;5.080;2023-08-12T14:44:29;23.93;67.22
66343;DHT22;53144;51.524;5.080;2023-08-12T14:46:58;23.74;69.60
66343;DHT22;53144;51.524;5.080;2023-08-12T14:49:24;23.75;67.38
66343;DHT22;53144;51.524;5.080;2023-08-12T14:51:49;23.73;67.20
66343;DHT22;53144;51.524;5.080;2023-08-12T14:54:15;23.68;66.85
66343;DHT22;53144;51.524;5.080;2023-08-12T14:56:40;23.91;65.68
66343;DHT22;53144;51.524;5.080;2023-08-12T14:59:06;23.78;68.25
66343;DHT22;53144;51.524;5.080;2023-08-12T15:01:31;23.85;67.09
66343;DHT22;53144;51.524;5.080;2023-08-12T15:03:57;23.68;66.63
66343;DHT22;53144;51.524;5.080;2023-08-12T15:06:22;23.81;64.61
66343;DHT22;53144;51.524;5.080;2023-08-12T15:08:48;23.68;65.07
66343;DHT22;53144;51.524;5.080;2023-08-12T15:11:14;23.64;65.92
66343;DHT22;53144;51.524;5.080;2023-08-12T15:13:39;23.51;69.67
66343;DHT22;53144;51.524;5.080;2023-08-12T15:16:05;23.27;64.84
66343;DHT22;53144;51.524;5.080;2023-08-12T15:18:30;23.36;65.88
66343;DHT22;53144;51.524;5.080;2023-08-12T15:20:56;23.26;66.00
66343;DHT22;53144;51.524;5.080;2023-08-12T15:23:21;23.16;67.64
66343;DHT22;53144;51.524;5.080;2023-08-12T15:25:47;23.36;70.08
66343;DHT22;53144;51.524;5.080;2023-08-12T15:28:12;23.60;66.70
66343;DHT22;53144;51.524;5.080;2023-08-12T15:30:38;23.77;65.57
66343;DHT22;53144;51.524;5.080;2023-08-12T15:33:05;23.74;65.71